Harrison, Maine
Current Conditions -  °F | °C
As of 2:54 PM on Saturday 20 Dec 2014 (Local Time) from KIZG Reporting Station
Clear Clear  
Wind Chill: 33°   Ceiling: Unl
Heat Index: 33°   Visibility: 10mi
Dew Point: 15°   Wind: 0mph
Humidity: 48%   Direction: NA
Pressure: 30.28"   Gusts: NA
Location:  44.11°N, 70.68°W
Report Text: KIZG 201954Z AUTO 00000KT 10SM CLR 01/M09 A3028 RMK AO2 SLP261 T00061094
Loading
Personal Weather Stations






























Interactive Weather Map New forecast layout! Learn more

10-Day Weather Forecast

Advertisements
Track Severe Weather on mobile